Time;durP1;ratioP1;P1;durP2;ratioP2;P2;SDS_P1;SDS_P2;PMS_P1;PMS_P2;Temp;Humidity;BMP_temperature;BMP_pressure;BME280_temperature;BME280_humidity;BME280_pressure;Samples;Min_cycle;Max_cycle;Signal;HPM_P1;HPM_P2
2021/06/23 00:01:03;;;;;;;2.30;1.50;;;18.00;52.30;;;;;;5081395;28;20245;-72
2021/06/23 00:03:29;;;;;;;1.93;1.43;;;17.90;52.40;;;;;;5081636;28;20219;-73
2021/06/23 00:05:55;;;;;;;3.80;1.60;;;17.80;51.70;;;;;;5078500;28;20234;-70
2021/06/23 00:08:20;;;;;;;2.00;1.17;;;17.70;52.20;;;;;;5078544;28;20200;-69
2021/06/23 00:10:47;;;;;;;4.50;1.73;;;17.70;51.60;;;;;;5078743;28;20602;-72
2021/06/23 00:13:14;;;;;;;2.90;1.40;;;17.70;51.90;;;;;;5078195;28;20654;-72
2021/06/23 00:15:40;;;;;;;2.00;1.80;;;17.70;51.40;;;;;;5078486;28;20452;-73
2021/06/23 00:18:06;;;;;;;2.33;1.63;;;17.70;51.00;;;;;;5078927;28;20415;-73
2021/06/23 00:20:32;;;;;;;1.63;1.20;;;17.70;50.30;;;;;;5078791;28;20208;-72
2021/06/23 00:22:57;;;;;;;1.50;1.20;;;17.70;49.90;;;;;;5079123;28;20421;-70
2021/06/23 00:25:23;;;;;;;3.50;1.27;;;17.70;49.30;;;;;;5078538;28;20409;-72
2021/06/23 00:27:49;;;;;;;1.63;0.90;;;17.70;48.90;;;;;;5078489;28;20614;-72
2021/06/23 00:30:16;;;;;;;2.07;1.10;;;17.70;48.70;;;;;;5078246;28;20320;-71
2021/06/23 00:32:44;;;;;;;2.03;1.47;;;17.60;49.10;;;;;;5078235;28;20987;-72
2021/06/23 00:35:10;;;;;;;2.10;1.20;;;17.60;49.20;;;;;;5078176;28;20961;-72
2021/06/23 00:37:36;;;;;;;1.80;1.10;;;17.50;50.60;;;;;;5078119;28;20803;-72
2021/06/23 00:40:03;;;;;;;2.30;1.10;;;17.50;50.40;;;;;;5077239;28;20509;-71
2021/06/23 00:42:28;;;;;;;1.67;0.80;;;17.60;50.20;;;;;;5078039;28;20410;-70
2021/06/23 00:44:54;;;;;;;1.70;1.20;;;17.60;50.70;;;;;;5078018;28;20443;-71
2021/06/23 00:47:24;;;;;;;4.90;1.00;;;17.60;50.70;;;;;;5078497;28;20174;-71
2021/06/23 00:49:50;;;;;;;6.33;1.57;;;17.70;50.30;;;;;;5077697;28;20686;-69
2021/06/23 00:52:16;;;;;;;2.23;1.40;;;17.70;50.50;;;;;;5078006;28;20417;-71
2021/06/23 00:54:50;;;;;;;2.10;1.50;;;17.70;51.10;;;;;;5077847;28;20197;-70
2021/06/23 00:57:17;;;;;;;1.93;1.27;;;17.60;51.20;;;;;;5077611;28;20185;-70
2021/06/23 00:59:44;;;;;;;2.90;1.43;;;17.60;51.60;;;;;;5078351;28;20941;-71
2021/06/23 01:02:12;;;;;;;1.27;0.80;;;17.60;52.20;;;;;;5077676;28;20442;-70
2021/06/23 01:04:38;;;;;;;2.20;0.80;;;17.60;53.20;;;;;;5077570;28;20424;-68
2021/06/23 01:07:04;;;;;;;1.30;0.83;;;17.60;52.70;;;;;;5076778;28;20412;-70
2021/06/23 01:09:30;;;;;;;2.70;1.27;;;17.50;52.40;;;;;;5077388;28;20473;-69
2021/06/23 01:12:21;;;;;;;1.50;0.93;;;17.50;52.90;;;;;;5064068;28;20455;-71
2021/06/23 01:14:49;;;;;;;3.77;1.23;;;17.40;53.00;;;;;;5037334;28;20226;-70
2021/06/23 01:17:15;;;;;;;1.67;1.30;;;17.40;53.00;;;;;;5056928;28;20516;-70
2021/06/23 01:19:45;;;;;;;1.70;1.17;;;17.40;53.00;;;;;;5056773;28;20426;-70
2021/06/23 01:22:16;;;;;;;4.30;1.50;;;17.40;54.30;;;;;;5063895;28;20428;-70
2021/06/23 01:24:42;;;;;;;1.70;1.23;;;17.40;53.60;;;;;;5075922;28;20428;-69
2021/06/23 01:27:09;;;;;;;1.80;1.23;;;17.40;53.80;;;;;;5076955;28;20420;-71
2021/06/23 01:29:35;;;;;;;2.13;1.40;;;17.40;53.70;;;;;;5064119;28;21049;-69
2021/06/23 01:32:01;;;;;;;2.70;1.00;;;17.40;54.10;;;;;;5061872;28;20432;-70
2021/06/23 01:34:26;;;;;;;1.80;1.13;;;17.40;54.20;;;;;;5076732;28;20513;-70
2021/06/23 01:36:52;;;;;;;3.30;1.60;;;17.40;53.40;;;;;;5076647;28;20213;-69
2021/06/23 01:39:17;;;;;;;2.87;1.20;;;17.40;53.60;;;;;;5076667;28;20225;-70
2021/06/23 01:41:43;;;;;;;1.73;1.17;;;17.40;53.70;;;;;;5076599;28;20613;-70
2021/06/23 01:44:09;;;;;;;2.57;1.33;;;17.40;53.80;;;;;;5076365;28;20174;-70
2021/06/23 01:46:34;;;;;;;3.23;1.40;;;17.40;54.00;;;;;;5076923;28;20181;-69
2021/06/23 01:49:00;;;;;;;2.10;1.63;;;17.40;54.20;;;;;;5076219;28;20185;-70
2021/06/23 01:51:25;;;;;;;5.67;1.60;;;17.30;54.40;;;;;;5075595;28;20170;-70
2021/06/23 01:53:51;;;;;;;1.97;1.00;;;17.20;55.30;;;;;;5076063;28;20173;-70
2021/06/23 01:56:16;;;;;;;1.80;1.00;;;17.20;55.40;;;;;;5076411;28;20208;-69
2021/06/23 01:58:43;;;;;;;1.87;1.23;;;17.10;56.10;;;;;;5076022;28;20185;-71
2021/06/23 02:01:09;;;;;;;1.70;1.30;;;17.20;56.20;;;;;;5075845;28;20266;-71
2021/06/23 02:03:34;;;;;;;1.40;1.00;;;17.10;56.30;;;;;;5076066;28;20416;-71
2021/06/23 02:06:06;;;;;;;3.70;1.20;;;17.20;56.00;;;;;;5063521;28;20578;-71
2021/06/23 02:08:47;;;;;;;8.43;1.90;;;17.20;55.40;;;;;;5056401;28;20182;-71
2021/06/23 02:11:36;;;;;;;1.57;1.20;;;17.20;55.10;;;;;;5067828;28;20431;-71
2021/06/23 02:14:33;;;;;;;1.87;1.30;;;17.20;54.30;;;;;;5076426;28;20432;-70
2021/06/23 02:17:02;;;;;;;1.73;1.07;;;17.10;54.30;;;;;;5076031;28;20424;-69
2021/06/23 02:19:28;;;;;;;1.60;1.07;;;17.10;54.70;;;;;;5075573;28;20455;-71
2021/06/23 02:21:55;;;;;;;5.43;1.30;;;17.10;54.40;;;;;;5076517;28;20412;-70
2021/06/23 02:24:20;;;;;;;1.70;1.43;;;17.00;54.80;;;;;;5075691;28;20404;-71
2021/06/23 02:26:46;;;;;;;1.60;0.80;;;17.00;55.40;;;;;;5075122;28;20824;-70
2021/06/23 02:29:12;;;;;;;1.73;1.27;;;16.90;56.40;;;;;;5073138;28;20619;-71
2021/06/23 02:31:39;;;;;;;1.60;1.00;;;16.80;57.20;;;;;;5075305;28;20189;-71
2021/06/23 02:34:13;;;;;;;2.57;1.20;;;16.70;57.30;;;;;;5075888;28;20173;-71
2021/06/23 02:36:39;;;;;;;1.83;0.97;;;16.60;57.80;;;;;;5075501;28;20507;-71
2021/06/23 02:39:06;;;;;;;1.90;1.50;;;16.50;58.40;;;;;;5074912;28;20456;-71
2021/06/23 02:41:32;;;;;;;1.40;1.00;;;16.50;59.10;;;;;;5075265;28;20404;-71
2021/06/23 02:43:58;;;;;;;6.80;1.37;;;16.40;59.40;;;;;;5075429;28;20408;-69
2021/06/23 02:46:24;;;;;;;1.70;1.30;;;16.30;58.60;;;;;;5075370;28;20415;-71
2021/06/23 02:48:53;;;;;;;1.80;1.00;;;16.30;59.00;;;;;;5074640;28;20192;-70
2021/06/23 02:51:24;;;;;;;1.87;1.20;;;16.30;59.30;;;;;;5075668;28;20633;-71
2021/06/23 02:53:52;;;;;;;2.60;1.20;;;16.30;58.30;;;;;;5075316;28;20491;-72
2021/06/23 02:56:19;;;;;;;1.20;0.70;;;16.30;57.00;;;;;;5075067;28;20464;-71
2021/06/23 02:58:45;;;;;;;1.70;1.17;;;16.30;55.10;;;;;;5074648;28;20524;-70
2021/06/23 03:01:12;;;;;;;1.50;1.00;;;16.30;54.50;;;;;;5075703;28;20462;-72
2021/06/23 03:03:40;;;;;;;1.87;1.50;;;16.30;54.40;;;;;;5075409;28;20511;-69
2021/06/23 03:06:06;;;;;;;3.50;1.47;;;16.30;54.50;;;;;;5075570;28;20427;-70
2021/06/23 03:08:33;;;;;;;4.87;0.90;;;16.30;53.80;;;;;;5075856;28;20419;-70
2021/06/23 03:10:58;;;;;;;1.33;0.73;;;16.30;53.20;;;;;;5075045;28;20444;-71
2021/06/23 03:13:24;;;;;;;4.10;0.70;;;16.30;48.90;;;;;;5075573;28;20423;-71
2021/06/23 03:15:50;;;;;;;1.40;0.73;;;16.30;47.10;;;;;;5075580;28;20206;-71
2021/06/23 03:18:15;;;;;;;1.27;0.70;;;16.40;47.00;;;;;;5075248;28;20197;-71
2021/06/23 03:20:41;;;;;;;1.50;0.73;;;16.40;47.00;;;;;;5075188;28;20228;-70
2021/06/23 03:23:06;;;;;;;1.73;1.13;;;16.40;48.50;;;;;;5075832;28;20256;-70
2021/06/23 03:25:32;;;;;;;1.70;1.13;;;16.40;47.00;;;;;;5076046;28;20288;-70
2021/06/23 03:28:00;;;;;;;1.83;1.10;;;16.40;47.40;;;;;;5076406;28;20186;-71
2021/06/23 03:30:27;;;;;;;1.57;0.93;;;16.50;48.70;;;;;;5075388;28;20456;-71
2021/06/23 03:32:53;;;;;;;1.67;1.00;;;16.50;48.60;;;;;;5076105;28;20418;-71
2021/06/23 03:35:20;;;;;;;1.17;0.60;;;16.50;48.00;;;;;;5075609;28;20460;-71
2021/06/23 03:37:47;;;;;;;1.77;0.87;;;16.50;48.40;;;;;;5075799;28;20190;-72
2021/06/23 03:40:12;;;;;;;1.50;0.90;;;16.30;48.80;;;;;;5077762;28;20475;-71
2021/06/23 03:42:38;;;;;;;2.00;0.90;;;16.30;49.90;;;;;;5079378;28;20449;-70
2021/06/23 03:45:04;;;;;;;2.03;1.40;;;16.20;51.30;;;;;;5079275;28;20674;-72
2021/06/23 03:47:30;;;;;;;2.90;0.80;;;16.20;51.80;;;;;;5079454;28;20186;-70
2021/06/23 03:49:56;;;;;;;1.80;1.07;;;16.20;52.50;;;;;;5078223;28;20456;-71
2021/06/23 03:52:21;;;;;;;1.83;0.73;;;16.20;52.30;;;;;;5078768;28;20189;-71
2021/06/23 03:54:47;;;;;;;1.63;1.03;;;16.20;52.80;;;;;;5078790;28;20202;-71
2021/06/23 03:57:12;;;;;;;9.47;1.17;;;16.20;53.60;;;;;;5079325;28;20185;-72
2021/06/23 03:59:38;;;;;;;2.10;1.10;;;16.30;53.30;;;;;;5078221;28;20198;-71
2021/06/23 04:02:04;;;;;;;2.50;1.47;;;16.40;53.10;;;;;;5079516;28;20213;-70
2021/06/23 04:04:30;;;;;;;1.50;0.80;;;16.60;53.30;;;;;;5078834;28;20249;-72
2021/06/23 04:06:55;;;;;;;2.40;1.20;;;16.70;52.40;;;;;;5059995;28;20453;-70
2021/06/23 04:09:21;;;;;;;2.40;1.30;;;16.80;52.10;;;;;;5065282;28;20198;-73
2021/06/23 04:11:46;;;;;;;1.40;0.97;;;16.90;50.00;;;;;;5062031;28;20510;-73
2021/06/23 04:14:12;;;;;;;2.90;0.93;;;17.10;49.90;;;;;;5065367;28;20203;-72
2021/06/23 04:16:38;;;;;;;1.40;0.93;;;17.20;48.60;;;;;;5059796;28;20171;-72
2021/06/23 04:19:04;;;;;;;2.10;1.03;;;17.30;49.00;;;;;;5063961;28;20174;-72
2021/06/23 04:21:29;;;;;;;2.70;1.17;;;17.50;48.40;;;;;;5079231;28;20173;-71
2021/06/23 04:23:55;;;;;;;4.13;0.90;;;17.70;48.10;;;;;;5078855;28;20419;-72
2021/06/23 04:26:20;;;;;;;1.47;0.77;;;17.80;46.60;;;;;;5075244;28;20175;-73
2021/06/23 04:28:46;;;;;;;1.70;1.10;;;18.00;45.30;;;;;;5060298;28;20171;-73
2021/06/23 04:31:12;;;;;;;1.60;0.90;;;18.10;44.90;;;;;;5078684;28;20235;-71
2021/06/23 04:33:37;;;;;;;1.40;1.00;;;18.20;44.30;;;;;;5078829;28;20182;-73
2021/06/23 04:36:03;;;;;;;3.47;0.83;;;18.20;44.40;;;;;;5078835;28;20233;-73
2021/06/23 04:38:29;;;;;;;1.90;1.10;;;;;;;;;;5077647;28;20227;-72
2021/06/23 04:40:55;;;;;;;4.23;1.50;;;18.40;43.10;;;;;;5085161;22;20591;-71
2021/06/23 04:43:20;;;;;;;1.87;1.43;;;18.50;42.50;;;;;;5052697;28;20421;-71
2021/06/23 04:45:46;;;;;;;1.93;0.70;;;18.50;41.50;;;;;;5052787;28;20178;-70
2021/06/23 04:48:11;;;;;;;1.37;0.90;;;18.50;41.00;;;;;;5052826;28;20189;-71
2021/06/23 04:50:37;;;;;;;3.57;1.23;;;18.60;40.20;;;;;;5068089;28;20292;-70
2021/06/23 04:53:03;;;;;;;1.33;0.77;;;18.70;40.50;;;;;;5072785;28;20182;-70
2021/06/23 04:55:28;;;;;;;4.40;1.20;;;19.40;41.00;;;;;;5072756;28;20205;-70
2021/06/23 04:57:54;;;;;;;1.20;0.70;;;20.90;34.10;;;;;;5072878;28;20411;-70
2021/06/23 05:00:20;;;;;;;1.50;0.97;;;22.70;29.00;;;;;;5067032;28;20297;-71
2021/06/23 05:02:46;;;;;;;1.47;1.03;;;23.70;25.60;;;;;;5072640;28;20609;-71
2021/06/23 05:05:12;;;;;;;2.10;1.17;;;23.60;24.80;;;;;;5072548;28;20697;-71
2021/06/23 05:07:37;;;;;;;4.13;1.40;;;23.30;25.80;;;;;;5072569;28;20178;-71
2021/06/23 05:10:04;;;;;;;1.30;1.00;;;22.80;26.50;;;;;;5072091;28;20248;-71
2021/06/23 05:12:30;;;;;;;1.37;1.07;;;22.40;27.40;;;;;;5072209;28;20190;-70
2021/06/23 05:14:56;;;;;;;2.70;1.27;;;23.40;26.60;;;;;;5072094;28;20818;-71
2021/06/23 05:17:22;;;;;;;1.73;1.20;;;24.80;23.60;;;;;;5072735;28;20952;-71
2021/06/23 05:19:48;;;;;;;3.30;1.50;;;26.20;21.30;;;;;;5071896;28;20460;-71
2021/06/23 05:22:14;;;;;;;1.40;1.10;;;27.30;18.20;;;;;;5071917;28;20452;-71
2021/06/23 05:24:41;;;;;;;1.40;1.10;;;28.00;16.80;;;;;;5071765;28;20653;-70
2021/06/23 05:27:08;;;;;;;1.50;1.17;;;28.00;17.80;;;;;;5072009;28;20243;-70
2021/06/23 05:29:33;;;;;;;3.10;1.30;;;28.40;15.80;;;;;;5071763;28;20466;-70
2021/06/23 05:31:59;;;;;;;2.27;1.30;;;29.00;15.90;;;;;;5072105;28;20507;-71
2021/06/23 05:34:24;;;;;;;1.40;1.30;;;29.80;13.50;;;;;;5071799;28;20205;-70
2021/06/23 05:36:50;;;;;;;1.50;1.27;;;30.10;13.70;;;;;;5052031;28;20593;-71
2021/06/23 05:39:16;;;;;;;2.43;1.67;;;30.40;13.80;;;;;;5051824;28;20541;-71
2021/06/23 05:41:41;;;;;;;1.60;1.50;;;29.70;13.40;;;;;;5050508;28;20213;-71
2021/06/23 05:44:07;;;;;;;1.77;1.67;;;28.60;13.40;;;;;;5051918;28;20545;-71
2021/06/23 05:46:32;;;;;;;1.77;1.67;;;27.40;15.60;;;;;;5069856;28;20192;-71
2021/06/23 05:48:58;;;;;;;3.33;1.60;;;26.50;16.60;;;;;;5071543;28;20518;-71
2021/06/23 05:51:24;;;;;;;1.63;1.50;;;26.40;18.10;;;;;;5072223;28;20216;-71
2021/06/23 05:53:49;;;;;;;1.80;1.70;;;26.40;17.60;;;;;;5071491;28;20232;-72
2021/06/23 05:56:15;;;;;;;1.73;1.63;;;26.00;17.50;;;;;;5071476;28;20259;-71
2021/06/23 05:58:41;;;;;;;2.10;1.90;;;26.10;18.80;;;;;;5071453;28;20181;-73
2021/06/23 06:01:06;;;;;;;1.90;1.80;;;27.30;17.40;;;;;;5070918;28;20603;-72
2021/06/23 06:03:33;;;;;;;1.87;1.77;;;28.80;15.40;;;;;;5067793;28;20234;-72
2021/06/23 06:05:59;;;;;;;2.20;2.10;;;30.30;13.40;;;;;;5051540;28;20178;-72
2021/06/23 06:08:24;;;;;;;2.10;2.00;;;31.60;10.70;;;;;;5054466;28;20420;-72
2021/06/23 06:10:50;;;;;;;2.83;2.50;;;32.30;9.10;;;;;;5070952;28;20189;-72
2021/06/23 06:13:16;;;;;;;2.33;2.23;;;32.00;9.40;;;;;;5071236;28;20174;-71
2021/06/23 06:15:42;;;;;;;2.50;2.30;;;32.30;8.60;;;;;;5071119;28;20259;-72
2021/06/23 06:18:07;;;;;;;2.53;2.43;;;32.90;8.80;;;;;;5071159;28;20662;-72
2021/06/23 06:20:34;;;;;;;3.40;2.80;;;33.00;8.40;;;;;;5070622;28;20212;-72
2021/06/23 06:23:00;;;;;;;3.10;2.90;;;33.40;7.30;;;;;;5070878;28;20213;-72
2021/06/23 06:25:26;;;;;;;2.90;2.80;;;33.40;7.10;;;;;;5070861;28;20452;-71
2021/06/23 06:27:52;;;;;;;3.70;3.50;;;33.80;6.90;;;;;;5071657;28;20885;-72
2021/06/23 06:30:19;;;;;;;3.47;3.37;;;33.90;6.30;;;;;;5069546;28;20489;-71
2021/06/23 06:32:45;;;;;;;3.90;3.70;;;34.10;6.50;;;;;;5069542;28;20189;-72
2021/06/23 06:35:11;;;;;;;4.67;4.27;;;34.70;5.00;;;;;;5064886;28;20453;-72
2021/06/23 06:37:36;;;;;;;4.53;4.33;;;35.00;4.90;;;;;;5050943;28;20654;-72
2021/06/23 06:40:02;;;;;;;5.10;4.90;;;35.40;4.80;;;;;;5050766;28;20499;-72
2021/06/23 06:42:29;;;;;;;5.63;5.43;;;35.20;4.90;;;;;;5050967;28;20621;-72
2021/06/23 06:44:55;;;;;;;5.77;5.57;;;34.20;6.40;;;;;;5058838;28;20480;-71
2021/06/23 06:47:20;;;;;;;6.53;6.23;;;33.80;5.40;;;;;;5070949;28;20404;-72
2021/06/23 06:49:46;;;;;;;6.50;6.30;;;34.00;6.40;;;;;;5070556;28;20277;-72
2021/06/23 06:52:11;;;;;;;6.80;6.60;;;34.20;5.30;;;;;;5071005;28;20216;-72
2021/06/23 06:54:37;;;;;;;7.57;7.00;;;35.20;4.20;;;;;;5070857;28;20255;-72
2021/06/23 06:57:03;;;;;;;7.50;7.20;;;35.20;4.10;;;;;;5070923;28;20186;-72
2021/06/23 06:59:30;;;;;;;8.50;8.00;;;34.80;4.10;;;;;;5070597;28;20180;-72
2021/06/23 07:01:55;;;;;;;9.00;8.30;;;34.30;5.60;;;;;;5070783;28;20587;-72
2021/06/23 07:04:21;;;;;;;8.80;8.30;;;34.50;5.60;;;;;;5055011;28;20417;-72
2021/06/23 07:06:47;;;;;;;8.60;8.30;;;35.10;4.70;;;;;;5056707;28;20167;-72
2021/06/23 07:09:14;;;;;;;8.80;8.50;;;35.70;3.70;;;;;;5068611;28;20189;-72
2021/06/23 07:11:40;;;;;;;8.80;8.50;;;36.30;3.30;;;;;;5075388;28;20460;-73
2021/06/23 07:14:05;;;;;;;9.23;8.93;;;36.80;2.50;;;;;;5078098;28;20458;-73
2021/06/23 07:16:31;;;;;;;9.67;9.03;;;36.80;2.80;;;;;;5071741;28;20202;-72
2021/06/23 07:18:57;;;;;;;9.70;9.30;;;36.50;2.90;;;;;;5060487;28;20227;-72
2021/06/23 07:21:23;;;;;;;9.43;9.13;;;36.30;3.30;;;;;;5072233;28;20205;-72
2021/06/23 07:23:50;;;;;;;10.00;9.70;;;36.20;3.60;;;;;;5081513;28;20617;-73
2021/06/23 07:26:16;;;;;;;10.40;9.90;;;35.20;5.30;;;;;;5082159;28;20182;-75
2021/06/23 07:28:55;;;;;;;10.60;10.20;;;34.40;6.60;;;;;;5077654;28;20416;-73
2021/06/23 07:31:27;;;;;;;11.30;10.70;;;34.40;6.60;;;;;;5077444;28;20451;-73
2021/06/23 07:36:43;;;;;;;11.00;10.60;;;35.00;4.70;;;;;;5077477;28;20474;-74
2021/06/23 07:39:11;;;;;;;11.90;11.40;;;34.50;5.00;;;;;;5075154;28;20559;-73
2021/06/23 07:41:39;;;;;;;11.20;10.80;;;32.70;7.00;;;;;;5076022;28;20459;-73
2021/06/23 07:44:06;;;;;;;11.50;11.10;;;31.60;9.00;;;;;;5075773;28;20435;-74
2021/06/23 07:46:38;;;;;;;10.67;10.27;;;31.50;9.10;;;;;;5077933;28;20904;-73
2021/06/23 07:49:08;;;;;;;11.17;10.77;;;31.90;9.20;;;;;;5075287;28;20792;-72
2021/06/23 08:02:43;;;;;;;11.50;11.10;;;33.80;5.90;;;;;;5055713;28;20412;-73
2021/06/23 08:10:41;;;;;;;11.90;11.50;;;34.50;6.70;;;;;;5055804;28;20424;-72
2021/06/23 08:13:07;;;;;;;12.73;11.70;;;34.30;5.00;;;;;;5057178;28;20444;-73
2021/06/23 08:15:35;;;;;;;12.60;12.10;;;34.40;5.00;;;;;;5073045;28;20548;-73
2021/06/23 08:18:01;;;;;;;12.90;12.40;;;34.30;4.70;;;;;;5056476;28;20930;-72
2021/06/23 08:20:27;;;;;;;13.33;12.73;;;33.40;5.40;;;;;;5056636;28;20441;-72
2021/06/23 08:22:53;;;;;;;13.27;12.30;;;32.10;6.70;;;;;;5059440;28;20178;-72
2021/06/23 08:25:21;;;;;;;12.90;12.40;;;30.80;8.80;;;;;;5074897;28;20436;-72
2021/06/23 08:27:47;;;;;;;13.20;12.60;;;30.00;9.00;;;;;;5059168;28;20186;-72
2021/06/23 08:30:14;;;;;;;13.33;12.83;;;29.30;9.80;;;;;;5060337;28;20456;-72
2021/06/23 08:32:39;;;;;;;12.83;12.23;;;28.40;11.50;;;;;;5061370;28;20425;-72
2021/06/23 08:35:06;;;;;;;11.37;10.90;;;27.60;13.30;;;;;;5064203;28;20495;-71
2021/06/23 08:37:32;;;;;;;11.50;11.10;;;27.00;15.00;;;;;;5065515;28;20171;-72
2021/06/23 08:39:57;;;;;;;12.20;11.70;;;27.30;14.50;;;;;;5064815;28;20544;-73
2021/06/23 08:42:24;;;;;;;11.73;11.33;;;28.10;13.40;;;;;;5062498;28;20498;-72
2021/06/23 08:44:49;;;;;;;12.70;12.30;;;29.10;11.10;;;;;;5062562;28;20311;-72
2021/06/23 08:47:15;;;;;;;12.93;12.43;;;30.20;10.10;;;;;;5056096;28;20421;-72
2021/06/23 08:49:46;;;;;;;12.67;12.20;;;30.80;9.20;;;;;;5053844;28;20179;-72
2021/06/23 08:52:12;;;;;;;12.50;12.10;;;30.40;9.50;;;;;;5069775;28;20420;-72
2021/06/23 08:54:41;;;;;;;12.20;11.80;;;30.50;9.60;;;;;;5055198;28;20417;-72
2021/06/23 08:57:08;;;;;;;13.00;12.50;;;30.40;10.60;;;;;;5054302;28;20424;-72
2021/06/23 08:59:34;;;;;;;12.07;11.67;;;30.40;9.70;;;;;;5053605;28;20478;-72
2021/06/23 09:02:00;;;;;;;12.53;12.03;;;30.40;11.50;;;;;;5053967;28;20425;-73
2021/06/23 09:04:27;;;;;;;12.20;11.70;;;30.20;10.70;;;;;;5054134;28;20417;-72
2021/06/23 09:06:58;;;;;;;11.80;11.40;;;29.80;11.10;;;;;;5054928;28;20902;-72
2021/06/23 09:09:35;;;;;;;12.40;11.97;;;28.80;11.20;;;;;;5054782;28;20906;-72
2021/06/23 09:12:06;;;;;;;12.73;12.07;;;28.20;12.70;;;;;;5054309;28;20416;-72
2021/06/23 09:14:37;;;;;;;12.10;11.60;;;27.80;12.40;;;;;;5054254;28;20417;-72
2021/06/23 09:17:14;;;;;;;11.70;11.00;;;27.30;13.40;;;;;;5054354;28;20421;-72
2021/06/23 09:19:42;;;;;;;11.40;10.90;;;27.00;14.30;;;;;;5054918;28;20487;-72
2021/06/23 09:22:32;;;;;;;10.60;10.20;;;26.60;14.50;;;;;;5054052;28;20413;-72
2021/06/23 09:24:59;;;;;;;10.20;9.80;;;26.40;15.30;;;;;;5063423;28;20417;-74
2021/06/23 09:27:27;;;;;;;10.80;10.30;;;26.30;16.00;;;;;;5053034;28;20801;-76
2021/06/23 09:29:53;;;;;;;9.90;9.60;;;26.00;15.60;;;;;;5052528;28;20850;-73
2021/06/23 09:32:21;;;;;;;10.27;9.87;;;25.70;15.90;;;;;;5053159;28;20482;-72
2021/06/23 09:34:53;;;;;;;9.73;9.37;;;25.90;16.80;;;;;;5056331;28;20237;-74
2021/06/23 09:37:27;;;;;;;9.30;9.00;;;26.00;17.20;;;;;;5053790;28;20471;-73
2021/06/23 09:40:21;;;;;;;10.33;9.93;;;26.10;15.60;;;;;;5053798;28;20449;-73
2021/06/23 09:42:49;;;;;;;10.50;10.10;;;26.20;16.30;;;;;;5062217;28;20520;-72
2021/06/23 09:45:17;;;;;;;10.33;9.93;;;26.40;14.90;;;;;;5071319;28;20460;-72
2021/06/23 09:47:45;;;;;;;11.50;10.53;;;26.30;14.70;;;;;;5070844;28;20421;-72
2021/06/23 09:50:20;;;;;;;9.70;9.40;;;25.80;15.00;;;;;;5073366;28;20486;-71
2021/06/23 09:52:57;;;;;;;9.70;9.40;;;25.50;16.00;;;;;;5077376;28;20419;-71
2021/06/23 09:55:38;;;;;;;10.50;10.10;;;25.60;15.80;;;;;;5076973;28;20466;-72
2021/06/23 09:58:11;;;;;;;9.43;9.13;;;25.50;15.80;;;;;;5074395;28;20423;-71
2021/06/23 10:01:06;;;;;;;10.00;9.57;;;25.50;16.50;;;;;;5074572;28;20498;-71
2021/06/23 10:03:54;;;;;;;10.27;9.87;;;25.80;15.90;;;;;;5074833;28;20451;-72
2021/06/23 10:06:21;;;;;;;9.90;9.60;;;26.00;16.00;;;;;;5075087;28;20428;-71
2021/06/23 10:08:50;;;;;;;10.07;9.67;;;26.00;15.00;;;;;;5072790;28;20420;-71
2021/06/23 10:11:28;;;;;;;9.70;9.40;;;26.00;16.00;;;;;;5072747;28;20439;-71
2021/06/23 10:13:54;;;;;;;10.00;9.70;;;26.20;14.20;;;;;;5072656;28;20435;-72
2021/06/23 10:16:22;;;;;;;10.40;10.00;;;26.10;14.20;;;;;;5068827;28;20464;-72
2021/06/23 10:18:48;;;;;;;9.90;9.53;;;26.00;13.40;;;;;;5070446;28;20186;-71
2021/06/23 10:21:14;;;;;;;10.07;9.67;;;26.00;14.00;;;;;;5072075;28;20509;-72
2021/06/23 10:23:40;;;;;;;9.20;8.90;;;25.70;14.20;;;;;;5073297;28;20413;-72
2021/06/23 10:26:06;;;;;;;9.33;9.03;;;25.80;14.50;;;;;;5072031;28;20553;-72
2021/06/23 10:28:33;;;;;;;9.53;9.23;;;25.40;14.60;;;;;;5073130;28;20519;-72
2021/06/23 10:30:59;;;;;;;9.73;9.33;;;25.40;15.10;;;;;;5072749;28;20454;-71
2021/06/23 10:33:25;;;;;;;10.63;10.00;;;25.60;14.60;;;;;;5072517;28;20412;-71
2021/06/23 10:35:51;;;;;;;10.20;9.80;;;25.70;14.00;;;;;;5072875;28;20202;-71
2021/06/23 10:38:19;;;;;;;10.10;9.70;;;25.90;14.20;;;;;;5072761;28;20943;-71
2021/06/23 10:40:45;;;;;;;9.97;9.60;;;25.90;14.10;;;;;;5072786;28;20937;-71
2021/06/23 10:43:13;;;;;;;10.40;10.00;;;25.90;14.80;;;;;;5071963;28;20419;-72
2021/06/23 10:45:43;;;;;;;10.80;10.40;;;26.10;13.80;;;;;;5072740;28;20423;-71
2021/06/23 10:48:10;;;;;;;10.50;9.60;;;26.10;13.70;;;;;;5073055;28;20412;-72
2021/06/23 10:50:36;;;;;;;9.20;8.90;;;26.00;14.80;;;;;;5072538;28;20432;-72
2021/06/23 10:53:23;;;;;;;10.20;9.80;;;26.20;15.00;;;;;;5072654;28;20419;-72
2021/06/23 10:55:49;;;;;;;9.87;9.47;;;26.20;14.30;;;;;;5072785;28;20507;-72
2021/06/23 10:58:14;;;;;;;10.17;9.67;;;25.90;14.30;;;;;;5073126;28;20412;-71
2021/06/23 11:00:44;;;;;;;10.30;9.90;;;26.00;14.20;;;;;;5072323;28;20217;-71
2021/06/23 11:03:12;;;;;;;9.17;8.70;;;26.10;14.80;;;;;;5072897;28;20234;-71
2021/06/23 11:05:44;;;;;;;10.47;10.00;;;26.10;15.60;;;;;;5071875;28;20507;-72
2021/06/23 11:08:30;;;;;;;10.53;10.13;;;26.10;14.30;;;;;;5071792;28;20442;-71
2021/06/23 11:11:03;;;;;;;10.40;10.00;;;25.80;14.50;;;;;;5072282;28;20887;-71
2021/06/23 11:13:35;;;;;;;11.13;10.70;;;25.60;15.20;;;;;;5071896;28;20446;-71
2021/06/23 11:16:01;;;;;;;10.07;9.67;;;25.40;15.00;;;;;;5071503;28;20463;-71
2021/06/23 11:18:33;;;;;;;10.30;9.90;;;25.30;15.40;;;;;;5051097;28;20432;-77
2021/06/23 11:21:21;;;;;;;9.83;9.43;;;25.30;14.80;;;;;;5050056;28;20186;-71
2021/06/23 11:23:58;;;;;;;10.90;10.50;;;25.40;15.40;;;;;;5049265;28;20441;-70
2021/06/23 11:26:25;;;;;;;9.63;9.23;;;25.60;14.30;;;;;;5049512;28;20452;-70
2021/06/23 11:29:04;;;;;;;9.50;9.00;;;25.70;15.70;;;;;;5048504;28;20930;-70
2021/06/23 11:31:43;;;;;;;9.60;9.30;;;25.90;16.40;;;;;;5048755;28;20424;-71
2021/06/23 11:34:09;;;;;;;10.27;9.87;;;26.30;14.90;;;;;;5048764;28;21138;-71
2021/06/23 11:36:35;;;;;;;10.40;10.00;;;26.60;14.30;;;;;;5066520;28;20486;-71
2021/06/23 11:39:02;;;;;;;10.30;9.90;;;26.60;13.40;;;;;;5068291;28;20991;-70
2021/06/23 11:41:28;;;;;;;10.83;10.40;;;26.50;14.50;;;;;;5068115;28;20210;-71
2021/06/23 11:43:53;;;;;;;11.60;11.10;;;26.30;14.20;;;;;;5070591;28;21039;-71
2021/06/23 11:46:19;;;;;;;10.70;10.30;;;26.00;14.40;;;;;;5070399;28;20178;-71
2021/06/23 11:48:45;;;;;;;10.13;9.63;;;25.70;14.50;;;;;;5070270;28;20182;-71
2021/06/23 11:51:11;;;;;;;9.67;9.27;;;25.60;15.80;;;;;;5070016;28;20202;-70
2021/06/23 11:53:37;;;;;;;9.93;9.50;;;25.90;15.30;;;;;;5070453;28;20178;-70
2021/06/23 11:56:03;;;;;;;9.00;8.70;;;26.00;15.60;;;;;;5070297;28;20462;-70
2021/06/23 11:58:29;;;;;;;10.50;10.10;;;25.70;15.40;;;;;;5070338;28;20412;-70
2021/06/23 12:00:55;;;;;;;9.43;9.13;;;26.00;14.90;;;;;;5070790;28;20601;-70
2021/06/23 12:03:22;;;;;;;10.43;9.90;;;26.10;14.80;;;;;;5073761;28;20208;-70
2021/06/23 12:05:49;;;;;;;9.90;9.50;;;26.30;15.20;;;;;;5072484;28;20186;-70
2021/06/23 12:08:15;;;;;;;9.80;9.50;;;26.40;14.70;;;;;;5073776;28;20428;-70
2021/06/23 12:10:41;;;;;;;10.47;10.07;;;26.40;15.00;;;;;;5071989;28;21121;-71
2021/06/23 12:13:08;;;;;;;12.33;10.30;;;26.70;15.00;;;;;;5070113;28;20847;-71
2021/06/23 12:15:34;;;;;;;10.90;10.50;;;26.90;14.40;;;;;;5073560;28;20861;-70
2021/06/23 12:18:02;;;;;;;10.10;9.80;;;26.50;14.10;;;;;;5070420;28;20769;-71
2021/06/23 12:20:30;;;;;;;10.00;9.60;;;26.60;15.00;;;;;;5051209;28;20441;-70
2021/06/23 12:22:58;;;;;;;10.37;9.97;;;26.80;16.00;;;;;;5065735;28;20424;-70
2021/06/23 12:25:30;;;;;;;10.77;10.37;;;27.10;13.90;;;;;;5060081;28;20813;-70
2021/06/23 12:27:56;;;;;;;11.57;11.07;;;27.20;14.30;;;;;;5053495;28;20412;-70
2021/06/23 12:30:28;;;;;;;11.30;10.90;;;27.40;12.50;;;;;;5053011;28;20524;-70
2021/06/23 12:32:58;;;;;;;11.30;10.80;;;27.50;13.30;;;;;;5065516;28;20458;-70
2021/06/23 12:35:26;;;;;;;12.30;11.77;;;27.70;13.10;;;;;;5073364;28;20499;-71
2021/06/23 12:37:52;;;;;;;12.93;12.13;;;27.70;12.40;;;;;;5057684;28;20428;-68
2021/06/23 12:40:18;;;;;;;12.10;11.60;;;27.30;12.20;;;;;;5052619;28;20460;-70
2021/06/23 12:42:43;;;;;;;13.10;12.20;;;27.30;12.50;;;;;;5063621;28;20518;-70
2021/06/23 12:45:10;;;;;;;11.73;11.33;;;27.30;13.10;;;;;;5073057;28;20404;-71
2021/06/23 12:47:36;;;;;;;11.20;10.70;;;27.00;13.80;;;;;;5072976;28;20192;-71
2021/06/23 12:50:02;;;;;;;10.60;10.20;;;26.60;15.00;;;;;;5072587;28;20470;-70
2021/06/23 12:52:28;;;;;;;11.23;10.80;;;26.40;14.80;;;;;;5072561;28;20934;-71
2021/06/23 12:54:53;;;;;;;10.93;10.53;;;26.40;15.10;;;;;;5072791;28;20553;-69
2021/06/23 12:57:19;;;;;;;10.97;10.57;;;26.40;15.00;;;;;;5072902;28;20178;-70
2021/06/23 12:59:44;;;;;;;10.50;10.10;;;26.50;15.20;;;;;;5072443;28;20300;-70
2021/06/23 13:02:10;;;;;;;11.10;10.70;;;26.30;14.60;;;;;;5072570;28;20181;-68
2021/06/23 13:50:59;;;;;;;11.63;11.23;;;27.20;12.20;;;;;;5060116;28;20574;-71